Time;durP1;ratioP1;P1;durP2;ratioP2;P2;SDS_P1;SDS_P2;PMS_P1;PMS_P2;Temp;Humidity;BMP_temperature;BMP_pressure;BME280_temperature;BME280_humidity;BME280_pressure;Samples;Min_cycle;Max_cycle;Signal;HPM_P1;HPM_P2
2023/01/06 00:00:06;;;;;;;5.03;1.70;;;;;;;8.89;100.00;101786.44;5055785;28;20477;-78
2023/01/06 00:02:32;;;;;;;7.40;1.73;;;;;;;8.85;100.00;101786.75;5054983;28;20551;-77
2023/01/06 00:04:57;;;;;;;5.68;1.73;;;;;;;8.83;100.00;101781.56;5054393;28;20032;-77
2023/01/06 00:07:22;;;;;;;7.32;1.45;;;;;;;8.81;100.00;101775.53;5053714;28;20041;-78
2023/01/06 00:09:48;;;;;;;11.38;2.03;;;;;;;8.81;100.00;101783.47;5055395;28;20100;-77
2023/01/06 00:12:13;;;;;;;4.18;1.58;;;;;;;8.78;100.00;101778.38;5054632;28;20035;-79
2023/01/06 00:14:41;;;;;;;4.72;1.58;;;;;;;8.78;100.00;101783.69;5055420;28;20041;-77
2023/01/06 00:17:06;;;;;;;6.78;1.63;;;;;;;8.78;100.00;101781.03;5055271;28;20029;-78
2023/01/06 00:19:32;;;;;;;6.75;1.73;;;;;;;8.74;100.00;101785.69;5054799;28;20039;-77
2023/01/06 00:21:57;;;;;;;9.45;1.80;;;;;;;8.76;100.00;101789.09;5055108;28;20368;-77
2023/01/06 00:24:22;;;;;;;5.50;1.77;;;;;;;8.75;100.00;101773.28;5053355;28;20437;-77
2023/01/06 00:26:48;;;;;;;9.10;2.20;;;;;;;8.74;100.00;101787.50;5054876;28;20053;-76
2023/01/06 00:29:13;;;;;;;6.68;2.20;;;;;;;8.72;100.00;101784.09;5054968;28;20036;-77
2023/01/06 00:31:38;;;;;;;7.43;2.38;;;;;;;8.69;100.00;101782.50;5054621;28;20025;-77
2023/01/06 00:34:04;;;;;;;4.22;2.17;;;;;;;8.71;100.00;101782.41;5054953;28;20086;-77
2023/01/06 00:36:29;;;;;;;4.15;2.33;;;;;;;8.69;100.00;101774.56;5054592;28;20033;-77
2023/01/06 00:38:55;;;;;;;9.98;3.00;;;;;;;8.69;100.00;101773.69;5054838;28;20029;-76
2023/01/06 00:44:05;;;;;;;11.35;3.08;;;;;;;8.62;100.00;101752.88;5054528;28;20087;-77
2023/01/06 00:46:33;;;;;;;10.23;3.22;;;;;;;8.64;100.00;101758.94;5054418;28;20030;-79
2023/01/06 00:49:00;;;;;;;9.15;2.78;;;;;;;8.64;100.00;101763.38;5054415;28;20053;-76
2023/01/06 00:51:26;;;;;;;9.18;2.97;;;;;;;8.62;100.00;101763.50;5053983;28;20052;-77
2023/01/06 00:53:52;;;;;;;7.70;2.78;;;;;;;8.60;100.00;101752.16;5054649;28;20032;-76
2023/01/06 00:56:17;;;;;;;7.72;2.80;;;;;;;8.60;100.00;101748.66;5054570;28;20033;-78
2023/01/06 00:58:42;;;;;;;8.70;2.60;;;;;;;8.59;100.00;101747.78;5053588;28;20529;-76
2023/01/06 01:01:09;;;;;;;7.22;2.53;;;;;;;8.60;100.00;101735.38;5054133;28;20342;-75
2023/01/06 01:03:36;;;;;;;9.27;2.53;;;;;;;8.62;100.00;101752.03;5052871;28;20029;-78
2023/01/06 01:06:04;;;;;;;6.43;2.28;;;;;;;8.61;100.00;101747.69;5054309;28;20028;-78
2023/01/06 01:08:29;;;;;;;6.68;2.53;;;;;;;8.63;100.00;101735.19;5053600;28;20463;-76
2023/01/06 01:11:01;;;;;;;9.10;2.40;;;;;;;8.64;100.00;101735.06;5054268;28;20108;-76
2023/01/06 01:13:26;;;;;;;5.63;2.30;;;;;;;8.65;100.00;101727.94;5054045;28;20021;-76
2023/01/06 01:15:52;;;;;;;8.38;2.47;;;;;;;8.65;100.00;101733.25;5054332;28;20158;-76
2023/01/06 01:18:17;;;;;;;6.70;2.25;;;;;;;8.65;100.00;101726.13;5053893;28;20108;-76
2023/01/06 01:20:45;;;;;;;7.07;2.33;;;;;;;8.66;100.00;101719.03;5053037;28;20047;-76
2023/01/06 01:23:10;;;;;;;5.93;2.30;;;;;;;8.68;100.00;101722.44;5057892;28;20036;-77
2023/01/06 01:25:36;;;;;;;5.45;2.30;;;;;;;8.67;100.00;101723.38;5060216;28;20029;-76
2023/01/06 01:28:01;;;;;;;4.93;2.80;;;;;;;8.68;100.00;101725.09;5057671;28;20040;-76
2023/01/06 01:30:27;;;;;;;7.25;2.67;;;;;;;8.68;100.00;101714.47;5055841;28;20025;-77
2023/01/06 01:32:52;;;;;;;6.45;2.78;;;;;;;8.67;100.00;101706.63;5052953;28;20372;-77
2023/01/06 01:35:17;;;;;;;10.15;3.45;;;;;;;8.67;100.00;101699.50;5057653;28;20025;-77
2023/01/06 01:37:43;;;;;;;7.05;3.22;;;;;;;8.66;100.00;101703.13;5057381;28;20025;-76
2023/01/06 01:40:09;;;;;;;7.75;2.65;;;;;;;8.61;100.00;101703.44;5055339;28;20031;-78
2023/01/06 01:42:34;;;;;;;6.35;2.85;;;;;;;8.59;100.00;101693.88;5053449;28;20043;-77
2023/01/06 01:45:21;;;;;;;4.43;2.35;;;;;;;8.58;100.00;101682.44;5052060;28;20048;-76
2023/01/06 01:47:51;;;;;;;8.25;2.58;;;;;;;8.57;100.00;101669.25;5052952;28;20046;-77
2023/01/06 01:50:29;;;;;;;5.07;2.40;;;;;;;8.60;100.00;101666.41;5053593;28;20021;-76
2023/01/06 01:53:05;;;;;;;7.82;2.45;;;;;;;8.62;100.00;101667.16;5053676;28;20017;-76
2023/01/06 01:55:33;;;;;;;8.80;2.50;;;;;;;8.61;100.00;101662.78;5052919;28;20108;-78
2023/01/06 01:58:09;;;;;;;3.97;2.30;;;;;;;8.60;100.00;101659.28;5053228;28;20116;-77
2023/01/06 02:00:35;;;;;;;6.10;2.30;;;;;;;8.60;100.00;101667.25;5051527;28;20162;-77
2023/01/06 02:03:02;;;;;;;6.18;2.63;;;;;;;8.62;100.00;101683.06;5053356;28;20025;-77
2023/01/06 02:05:29;;;;;;;7.82;2.50;;;;;;;8.65;100.00;101664.28;5052766;28;20077;-78
2023/01/06 02:07:57;;;;;;;8.82;2.40;;;;;;;8.64;100.00;101666.09;5053239;28;20036;-77
2023/01/06 02:10:23;;;;;;;6.40;2.50;;;;;;;8.67;100.00;101657.06;5050755;28;20171;-78
2023/01/06 02:12:52;;;;;;;8.32;2.20;;;;;;;8.67;100.00;101653.56;5052802;28;20517;-77
2023/01/06 02:15:26;;;;;;;8.05;2.90;;;;;;;8.64;100.00;101654.63;5053097;28;20054;-77
2023/01/06 02:18:10;;;;;;;5.90;2.60;;;;;;;8.57;100.00;101640.94;5052762;28;20025;-77
2023/01/06 02:21:06;;;;;;;4.72;2.47;;;;;;;8.53;100.00;101660.66;5052889;28;20381;-77
2023/01/06 02:24:05;;;;;;;5.88;2.45;;;;;;;8.53;100.00;101655.38;5052563;28;20052;-77
2023/01/06 02:27:00;;;;;;;4.65;2.42;;;;;;;8.54;100.00;101657.06;5053578;28;20033;-79
2023/01/06 02:29:49;;;;;;;2.95;1.98;;;;;;;8.56;100.00;101639.22;5044405;28;20045;-77
2023/01/06 02:32:29;;;;;;;3.85;2.17;;;;;;;8.57;100.00;101632.97;5052890;28;20028;-77
2023/01/06 02:35:04;;;;;;;5.35;1.73;;;;;;;8.61;100.00;101618.56;5052579;28;20092;-77
2023/01/06 02:37:46;;;;;;;7.90;1.90;;;;;;;8.65;100.00;101614.72;5052402;28;20032;-77
2023/01/06 02:40:30;;;;;;;3.92;1.83;;;;;;;8.66;100.00;101610.28;5052627;28;20029;-77
2023/01/06 02:43:09;;;;;;;4.95;2.08;;;;;;;8.64;100.00;101610.38;5052027;28;20087;-77
2023/01/06 02:46:00;;;;;;;5.47;1.80;;;;;;;8.61;100.00;101593.81;5052328;28;20071;-77
2023/01/06 02:48:41;;;;;;;3.97;1.60;;;;;;;8.59;100.00;101596.56;5050413;28;20522;-77
2023/01/06 02:51:16;;;;;;;4.55;1.75;;;;;;;8.58;100.00;101594.91;5052387;28;20025;-77
2023/01/06 02:54:02;;;;;;;5.78;1.70;;;;;;;8.57;100.00;101582.59;5050763;28;20029;-76
2023/01/06 02:56:35;;;;;;;5.28;2.30;;;;;;;8.56;100.00;101590.66;5052377;28;20021;-76
2023/01/06 02:59:31;;;;;;;8.05;2.20;;;;;;;8.57;100.00;101581.72;5052491;28;20021;-77
2023/01/06 03:01:58;;;;;;;3.60;1.52;;;;;;;8.58;100.00;101578.13;5052061;28;20170;-77
2023/01/06 03:04:33;;;;;;;9.93;1.77;;;;;;;8.62;100.00;101579.59;5052318;28;20170;-77
2023/01/06 03:07:01;;;;;;;3.65;1.80;;;;;;;8.61;100.00;101578.75;5052001;28;20149;-77
2023/01/06 03:09:37;;;;;;;3.83;1.80;;;;;;;8.58;100.00;101572.81;5050814;28;20031;-76
2023/01/06 03:12:11;;;;;;;7.65;1.70;;;;;;;8.53;100.00;101567.84;5052449;28;20025;-76
2023/01/06 03:14:45;;;;;;;4.47;1.60;;;;;;;8.48;100.00;101562.00;5052352;28;20107;-76
2023/01/06 03:17:10;;;;;;;5.32;1.40;;;;;;;8.46;100.00;101566.56;5052175;28;20124;-77
2023/01/06 03:19:36;;;;;;;5.55;1.85;;;;;;;8.43;100.00;101556.13;5050872;28;20112;-76
2023/01/06 03:22:02;;;;;;;3.65;1.50;;;;;;;8.40;100.00;101549.22;5051717;28;20024;-78
2023/01/06 03:24:28;;;;;;;7.18;1.88;;;;;;;8.39;100.00;101541.38;5056201;28;20166;-78
2023/01/06 03:26:53;;;;;;;4.20;1.60;;;;;;;8.41;100.00;101537.69;5054589;28;20464;-76
2023/01/06 03:29:21;;;;;;;6.00;1.90;;;;;;;8.44;100.00;101534.84;5056265;28;20040;-76
2023/01/06 03:32:12;;;;;;;7.80;2.25;;;;;;;8.46;100.00;101540.91;5055427;28;20349;-76
2023/01/06 03:34:55;;;;;;;5.65;1.80;;;;;;;8.50;100.00;101530.91;5054659;28;20376;-76
2023/01/06 03:37:54;;;;;;;4.13;1.80;;;;;;;8.54;100.00;101532.41;5056454;28;20449;-77
2023/01/06 03:40:43;;;;;;;7.10;1.65;;;;;;;8.57;100.00;101539.28;5055677;28;20484;-76
2023/01/06 03:43:24;;;;;;;4.75;1.80;;;;;;;8.57;100.00;101531.31;5054506;28;20037;-76
2023/01/06 03:45:57;;;;;;;2.92;1.60;;;;;;;8.59;100.00;101521.47;5055504;28;20029;-77
2023/01/06 03:48:46;;;;;;;4.63;1.45;;;;;;;8.62;100.00;101527.38;5056291;28;20037;-76
2023/01/06 03:51:14;;;;;;;5.47;1.85;;;;;;;8.63;100.00;101517.63;5055753;28;20103;-77
2023/01/06 03:53:49;;;;;;;6.28;2.25;;;;;;;8.62;100.00;101518.59;5055679;28;20078;-77
2023/01/06 03:56:35;;;;;;;6.32;1.50;;;;;;;8.65;100.00;101511.25;5055795;28;20029;-77
2023/01/06 03:59:05;;;;;;;7.43;1.70;;;;;;;8.64;100.00;101503.41;5053959;28;20025;-76
2023/01/06 04:01:31;;;;;;;3.13;1.70;;;;;;;8.68;100.00;101496.91;5055410;28;20025;-76
2023/01/06 04:03:57;;;;;;;2.40;1.35;;;;;;;8.67;100.00;101503.19;5055089;28;20032;-76
2023/01/06 04:06:23;;;;;;;3.17;1.45;;;;;;;8.67;100.00;101505.00;5053824;28;20358;-76
2023/01/06 04:08:48;;;;;;;7.75;2.00;;;;;;;8.65;100.00;101499.78;5054960;28;20027;-77
2023/01/06 04:13:59;;;;;;;3.83;1.85;;;;;;;8.70;100.00;101497.66;5054693;28;20043;-76
2023/01/06 04:16:24;;;;;;;4.93;1.88;;;;;;;8.73;100.00;101488.63;5054015;28;20021;-77
2023/01/06 04:18:50;;;;;;;3.83;1.40;;;;;;;8.73;100.00;101494.81;5054718;28;20033;-76
2023/01/06 04:21:15;;;;;;;4.82;1.70;;;;;;;8.69;100.00;101477.41;5053655;28;20025;-76
2023/01/06 04:23:41;;;;;;;3.97;1.73;;;;;;;8.67;100.00;101479.28;5055093;28;20029;-76
2023/01/06 04:26:06;;;;;;;2.88;1.52;;;;;;;8.65;100.00;101482.06;5054951;28;20040;-76
2023/01/06 04:28:31;;;;;;;7.25;1.88;;;;;;;8.67;100.00;101475.81;5055243;28;20157;-76
2023/01/06 04:30:58;;;;;;;5.53;1.60;;;;;;;8.69;100.00;101484.50;5054577;28;20037;-76
2023/01/06 04:33:23;;;;;;;3.25;1.30;;;;;;;8.70;100.00;101476.41;5053844;28;20104;-77
2023/01/06 04:35:49;;;;;;;3.08;1.30;;;;;;;8.74;100.00;101491.16;5054512;28;20117;-78
2023/01/06 04:38:14;;;;;;;2.35;1.30;;;;;;;8.77;100.00;101493.59;5055015;28;20028;-77
2023/01/06 04:40:41;;;;;;;4.35;1.83;;;;;;;8.77;100.00;101477.69;5054466;28;20025;-77
2023/01/06 04:43:13;;;;;;;5.00;1.60;;;;;;;8.73;100.00;101484.19;5053824;28;20126;-78
2023/01/06 04:45:39;;;;;;;2.55;1.55;;;;;;;8.63;100.00;101469.88;5054702;28;20037;-79
2023/01/06 04:48:04;;;;;;;3.42;1.50;;;;;;;8.52;100.00;101464.50;5054613;28;20531;-80
2023/01/06 04:50:30;;;;;;;5.07;1.55;;;;;;;8.40;100.00;101464.38;5054778;28;20033;-80
2023/01/06 04:52:55;;;;;;;5.35;1.83;;;;;;;8.29;100.00;101461.66;5054159;28;20029;-80
2023/01/06 04:55:21;;;;;;;6.57;1.80;;;;;;;8.20;100.00;101452.56;5053506;28;20052;-81
2023/01/06 04:57:46;;;;;;;4.32;1.75;;;;;;;8.12;100.00;101466.34;5054547;28;20023;-81
2023/01/06 05:00:12;;;;;;;5.68;1.73;;;;;;;8.07;100.00;101449.91;5054201;28;20020;-82
2023/01/06 05:02:38;;;;;;;5.38;1.83;;;;;;;8.05;100.00;101453.66;5054489;28;20472;-82
2023/01/06 05:05:03;;;;;;;8.82;2.95;;;;;;;8.03;100.00;101456.41;5054007;28;20095;-81
2023/01/06 05:07:29;;;;;;;7.38;1.77;;;;;;;8.04;100.00;101450.13;5052021;28;20040;-70
2023/01/06 05:09:54;;;;;;;7.13;1.73;;;;;;;8.06;100.00;101455.31;5051065;28;20470;-71
2023/01/06 05:12:19;;;;;;;4.25;1.52;;;;;;;8.05;100.00;101458.94;5050976;28;20064;-70
2023/01/06 05:14:45;;;;;;;3.42;1.67;;;;;;;8.05;100.00;101453.66;5032835;28;20033;-71
2023/01/06 05:17:10;;;;;;;3.10;1.80;;;;;;;8.03;100.00;101469.66;5050791;28;20021;-70
2023/01/06 05:19:36;;;;;;;5.13;1.85;;;;;;;7.99;100.00;101465.50;5050581;28;20345;-71
2023/01/06 05:22:01;;;;;;;4.65;1.90;;;;;;;7.99;100.00;101465.50;5050635;28;20021;-69
2023/01/06 05:24:26;;;;;;;8.85;2.00;;;;;;;7.96;100.00;101471.03;5049318;28;20452;-71
2023/01/06 05:26:53;;;;;;;6.72;1.92;;;;;;;7.95;100.00;101467.50;5051124;28;20029;-70
2023/01/06 05:29:19;;;;;;;4.15;1.83;;;;;;;7.97;100.00;101467.41;5050642;28;20029;-71
2023/01/06 05:31:44;;;;;;;3.13;1.60;;;;;;;7.95;100.00;101464.84;5050236;28;20128;-71
2023/01/06 05:34:10;;;;;;;4.90;1.80;;;;;;;8.01;100.00;101462.75;5050271;28;20326;-70
2023/01/06 05:36:35;;;;;;;3.88;2.03;;;;;;;8.01;100.00;101468.06;5050625;28;20105;-70
2023/01/06 05:39:01;;;;;;;4.30;1.70;;;;;;;8.02;100.00;101461.81;5050654;28;20036;-71
2023/01/06 05:41:26;;;;;;;4.50;1.90;;;;;;;7.99;100.00;101457.56;5049935;28;20033;-70
2023/01/06 05:43:51;;;;;;;4.00;1.60;;;;;;;8.00;100.00;101456.63;5050491;28;20186;-70
2023/01/06 05:46:17;;;;;;;4.07;1.80;;;;;;;8.00;100.00;101461.06;5050261;28;20025;-70
2023/01/06 05:48:42;;;;;;;5.40;1.73;;;;;;;7.99;100.00;101464.69;5050340;28;20077;-70
2023/01/06 05:51:10;;;;;;;5.07;2.22;;;;;;;8.00;100.00;101466.34;5050159;28;20137;-71
2023/01/06 05:53:38;;;;;;;4.20;1.77;;;;;;;8.01;100.00;101468.88;5050135;28;20024;-70
2023/01/06 05:56:06;;;;;;;2.00;1.70;;;;;;;7.98;100.00;101468.28;5050301;28;20029;-70
2023/01/06 05:58:32;;;;;;;4.68;1.80;;;;;;;8.01;100.00;101476.84;5050077;28;20120;-69
2023/01/06 06:00:58;;;;;;;3.30;1.70;;;;;;;8.02;100.00;101485.66;5049941;28;20117;-74
2023/01/06 06:03:24;;;;;;;3.47;1.88;;;;;;;8.00;100.00;101483.13;5048744;28;20052;-70
2023/01/06 06:05:49;;;;;;;3.95;1.80;;;;;;;8.04;100.00;101489.88;5050149;28;20029;-71
2023/01/06 06:08:15;;;;;;;5.03;1.90;;;;;;;8.04;100.00;101486.38;5049960;28;20028;-69
2023/01/06 06:10:40;;;;;;;3.15;1.88;;;;;;;8.07;100.00;101499.44;5050419;28;20397;-72
2023/01/06 06:13:05;;;;;;;5.32;1.52;;;;;;;8.09;100.00;101518.72;5050286;28;20420;-69
2023/01/06 06:15:31;;;;;;;1.95;1.80;;;;;;;8.10;100.00;101513.31;5050114;28;20429;-70
2023/01/06 06:17:56;;;;;;;3.20;1.73;;;;;;;8.10;100.00;101518.59;5050107;28;20025;-70
2023/01/06 06:20:21;;;;;;;2.88;1.70;;;;;;;8.12;100.00;101527.31;5049688;28;20047;-69
2023/01/06 06:22:47;;;;;;;3.47;1.50;;;;;;;8.13;100.00;101533.47;5049828;28;20071;-69
2023/01/06 06:25:12;;;;;;;2.03;1.58;;;;;;;8.16;100.00;101535.88;5048282;28;20063;-70
2023/01/06 06:27:38;;;;;;;2.55;1.40;;;;;;;8.18;100.00;101535.78;5049300;28;20090;-70
2023/01/06 06:30:05;;;;;;;2.47;1.60;;;;;;;8.15;100.00;101528.03;5048024;28;20070;-70
2023/01/06 06:32:31;;;;;;;4.00;2.20;;;;;;;8.14;100.00;101535.16;5048982;28;20086;-70
2023/01/06 06:34:57;;;;;;;4.88;1.75;;;;;;;8.14;100.00;101534.31;5049033;28;20489;-69
2023/01/06 06:37:22;;;;;;;4.15;1.90;;;;;;;8.12;100.00;101545.00;5047725;28;20446;-68
2023/01/06 06:39:47;;;;;;;8.52;2.03;;;;;;;8.12;100.00;101545.00;5049126;28;20044;-71
2023/01/06 06:42:13;;;;;;;7.43;2.40;;;;;;;8.15;100.00;101554.56;5048970;28;20070;-70
2023/01/06 06:44:38;;;;;;;11.07;2.10;;;;;;;8.12;100.00;101548.53;5048841;28;20077;-69
2023/01/06 06:47:03;;;;;;;9.25;2.20;;;;;;;8.11;100.00;101562.72;5049265;28;20103;-72
2023/01/06 06:49:29;;;;;;;5.50;2.05;;;;;;;8.12;100.00;101569.72;5047772;28;20429;-71
2023/01/06 06:51:54;;;;;;;12.63;2.60;;;;;;;8.14;100.00;101574.09;5049176;28;20037;-71
2023/01/06 06:54:19;;;;;;;10.32;1.75;;;;;;;8.11;100.00;101569.84;5049325;28;20047;-71
2023/01/06 06:56:45;;;;;;;8.38;2.00;;;;;;;8.12;100.00;101574.16;5047297;28;20045;-71
2023/01/06 06:59:10;;;;;;;9.25;1.65;;;;;;;8.09;100.00;101577.88;5049054;28;20043;-71
2023/01/06 07:01:35;;;;;;;15.18;2.08;;;;;;;8.08;100.00;101583.31;5048796;28;20067;-70
2023/01/06 07:04:01;;;;;;;13.45;2.03;;;;;;;8.05;100.00;101576.41;5049531;28;20121;-70
2023/01/06 07:06:26;;;;;;;11.35;2.13;;;;;;;8.01;100.00;101585.50;5049140;28;20025;-70
2023/01/06 07:08:52;;;;;;;16.42;2.22;;;;;;;7.99;100.00;101587.41;5049215;28;20028;-70
2023/01/06 07:11:19;;;;;;;15.75;2.72;;;;;;;7.98;100.00;101591.00;5048866;28;20167;-70
2023/01/06 07:13:44;;;;;;;19.73;2.60;;;;;;;8.01;100.00;101598.75;5049501;28;20287;-70
2023/01/06 07:16:10;;;;;;;20.15;2.78;;;;;;;7.99;100.00;101605.13;5049193;28;20044;-70
2023/01/06 07:18:36;;;;;;;17.30;2.10;;;;;;;7.98;100.00;101611.38;5048746;28;20025;-70
2023/01/06 07:21:01;;;;;;;23.58;2.85;;;;;;;7.96;100.00;101622.09;5049111;28;20112;-70
2023/01/06 07:23:27;;;;;;;17.67;2.88;;;;;;;7.94;100.00;101634.56;5047468;28;20092;-69
2023/01/06 07:25:58;;;;;;;18.45;2.40;;;;;;;7.92;100.00;101636.47;5049108;28;20429;-70
2023/01/06 07:28:24;;;;;;;16.05;2.13;;;;;;;7.87;100.00;101639.44;5047849;28;20077;-70
2023/01/06 07:30:50;;;;;;;17.80;2.60;;;;;;;7.77;100.00;101646.28;5049507;28;20052;-70
2023/01/06 07:33:17;;;;;;;14.80;2.40;;;;;;;7.67;100.00;101637.25;5048915;28;20093;-70
2023/01/06 07:35:42;;;;;;;17.27;2.22;;;;;;;7.59;100.00;101637.75;5049007;28;20051;-71
2023/01/06 07:38:08;;;;;;;14.85;2.50;;;;;;;7.52;100.00;101637.28;5048863;28;20328;-71
2023/01/06 07:40:35;;;;;;;27.80;2.72;;;;;;;7.41;100.00;101638.00;5047114;28;20107;-70
2023/01/06 07:43:08;;;;;;;14.45;2.22;;;;;;;7.33;100.00;101644.72;5047052;28;20041;-69
2023/01/06 07:45:34;;;;;;;18.35;2.08;;;;;;;7.26;100.00;101646.94;5048491;28;20051;-70
2023/01/06 07:48:00;;;;;;;18.42;2.20;;;;;;;7.20;100.00;101647.31;5048837;28;20112;-69
2023/01/06 07:50:26;;;;;;;20.50;3.20;;;;;;;7.10;100.00;101651.50;5047155;28;20187;-71
2023/01/06 07:52:52;;;;;;;11.27;1.83;;;;;;;7.00;100.00;101652.06;5048800;28;20025;-71
2023/01/06 07:55:17;;;;;;;13.35;1.92;;;;;;;6.92;100.00;101656.97;5048532;28;20025;-71
2023/01/06 07:57:42;;;;;;;14.20;1.63;;;;;;;6.83;100.00;101654.91;5048871;28;20467;-71
2023/01/06 08:00:08;;;;;;;11.65;3.03;;;;;;;6.83;100.00;101658.41;5047164;28;20052;-71
2023/01/06 08:02:34;;;;;;;13.93;2.15;;;;;;;6.78;100.00;101660.50;5048443;28;20457;-70
2023/01/06 08:04:59;;;;;;;13.95;2.10;;;;;;;6.79;100.00;101679.84;5048558;28;20116;-71
2023/01/06 08:07:25;;;;;;;11.35;1.40;;;;;;;6.70;100.00;101671.53;5048536;28;20069;-71
2023/01/06 08:09:50;;;;;;;17.75;2.72;;;;;;;6.68;100.00;101676.06;5050533;28;20111;-71
2023/01/06 08:12:15;;;;;;;11.10;1.73;;;;;;;6.71;100.00;101683.81;5052393;28;20118;-71
2023/01/06 08:14:41;;;;;;;12.32;1.90;;;;;;;6.73;100.00;101696.09;5052891;28;20017;-71
2023/01/06 08:17:06;;;;;;;6.25;1.75;;;;;;;6.76;100.00;101701.19;5052775;28;20402;-71
2023/01/06 08:19:32;;;;;;;9.15;1.52;;;;;;;6.70;100.00;101708.56;5051323;28;20040;-68
2023/01/06 08:21:57;;;;;;;7.72;1.77;;;;;;;6.68;100.00;101720.19;5050845;28;20017;-69
2023/01/06 08:24:23;;;;;;;11.50;1.73;;;;;;;6.62;100.00;101716.09;5052163;28;20469;-70
2023/01/06 08:26:48;;;;;;;14.13;1.92;;;;;;;6.60;100.00;101717.13;5051968;28;20418;-70
2023/01/06 08:29:14;;;;;;;9.60;1.52;;;;;;;6.62;100.00;101725.84;5051868;28;20116;-68
2023/01/06 08:31:39;;;;;;;8.02;1.30;;;;;;;6.64;100.00;101726.59;5051853;28;20091;-69
2023/01/06 08:34:04;;;;;;;6.55;1.27;;;;;;;6.65;100.00;101733.59;5050127;28;20048;-69
2023/01/06 08:36:30;;;;;;;9.13;1.90;;;;;;;6.64;100.00;101731.88;5051659;28;20090;-70
2023/01/06 08:38:56;;;;;;;10.52;1.40;;;;;;;6.60;100.00;101733.88;5051650;28;20032;-69
2023/01/06 08:41:21;;;;;;;10.30;1.63;;;;;;;6.61;100.00;101735.53;5051482;28;20075;-69
2023/01/06 08:43:47;;;;;;;11.93;1.80;;;;;;;6.75;100.00;101736.50;5051034;28;20147;-70
2023/01/06 08:46:18;;;;;;;4.10;0.98;;;;;;;6.82;100.00;101743.13;5051388;28;20032;-70
2023/01/06 08:48:43;;;;;;;8.93;1.52;;;;;;;6.89;100.00;101747.13;5051476;28;20388;-70
2023/01/06 08:51:12;;;;;;;8.60;1.45;;;;;;;6.91;100.00;101747.03;5049526;28;20116;-71
2023/01/06 08:53:38;;;;;;;12.35;1.70;;;;;;;6.90;100.00;101748.84;5051200;28;20149;-70
2023/01/06 08:56:04;;;;;;;8.98;1.75;;;;;;;6.90;100.00;101746.19;5051059;28;20426;-71
2023/01/06 08:58:29;;;;;;;8.18;1.92;;;;;;;6.92;100.00;101751.38;5050853;28;20071;-71
2023/01/06 09:00:55;;;;;;;10.82;1.83;;;;;;;6.89;100.00;101753.25;5051580;28;20048;-72
2023/01/06 09:03:21;;;;;;;11.40;1.67;;;;;;;6.95;100.00;101754.69;5051658;28;20116;-73
2023/01/06 09:05:56;;;;;;;7.93;1.60;;;;;;;7.00;100.00;101755.28;5050032;28;20412;-72
2023/01/06 09:08:23;;;;;;;9.50;1.88;;;;;;;7.05;100.00;101755.00;5051576;28;20120;-71
2023/01/06 09:10:49;;;;;;;12.57;2.03;;;;;;;7.10;100.00;101775.88;5051453;28;20118;-71
2023/01/06 09:13:15;;;;;;;14.50;1.90;;;;;;;7.13;100.00;101781.81;5051436;28;20154;-71
2023/01/06 09:15:41;;;;;;;15.32;1.80;;;;;;;7.17;100.00;101771.91;5051037;28;20040;-72
2023/01/06 09:18:08;;;;;;;15.32;1.75;;;;;;;7.15;100.00;101772.00;5050697;28;20310;-72
2023/01/06 09:20:35;;;;;;;7.68;1.50;;;;;;;7.16;100.00;101780.78;5050094;28;20029;-73
2023/01/06 09:23:00;;;;;;;9.35;1.38;;;;;;;7.26;100.00;101779.28;5050947;28;20033;-71
2023/01/06 09:25:25;;;;;;;11.52;1.48;;;;;;;7.26;100.00;101789.03;5050954;28;20425;-71
2023/01/06 09:27:51;;;;;;;7.63;1.35;;;;;;;7.25;100.00;101796.09;5051171;28;20143;-71
2023/01/06 09:30:17;;;;;;;7.55;1.42;;;;;;;7.30;100.00;101795.81;5050572;28;20032;-71
2023/01/06 09:32:42;;;;;;;7.03;1.90;;;;;;;7.32;100.00;101781.56;5050333;28;20021;-73
2023/01/06 09:35:08;;;;;;;7.72;1.65;;;;;;;7.36;100.00;101775.13;5050440;28;20099;-70
2023/01/06 09:37:34;;;;;;;8.68;1.30;;;;;;;7.37;100.00;101782.09;5050477;28;20109;-72
2023/01/06 09:39:59;;;;;;;9.52;1.70;;;;;;;7.41;100.00;101780.13;5050486;28;20098;-71
2023/01/06 09:42:47;;;;;;;11.65;2.50;;;;;;;7.45;100.00;101786.94;5050646;28;20047;-70
2023/01/06 09:45:19;;;;;;;7.05;1.63;;;;;;;7.53;100.00;101789.94;5050599;28;20048;-70
2023/01/06 09:47:54;;;;;;;15.63;1.60;;;;;;;7.57;100.00;101793.28;5050933;28;20021;-69
2023/01/06 09:50:40;;;;;;;10.85;1.85;;;;;;;7.64;100.00;101794.56;5049556;28;20124;-69
2023/01/06 09:53:41;;;;;;;8.75;1.80;;;;;;;7.68;100.00;101790.78;5051047;28;20089;-69
2023/01/06 09:56:11;;;;;;;8.27;1.97;;;;;;;7.76;100.00;101788.50;5041357;28;20049;-72
2023/01/06 09:58:55;;;;;;;9.48;1.27;;;;;;;7.82;100.00;101799.66;5050778;28;20070;-71
2023/01/06 10:01:29;;;;;;;10.38;1.58;;;;;;;7.87;100.00;101805.53;5050752;28;20445;-70
2023/01/06 10:03:56;;;;;;;7.72;1.42;;;;;;;7.92;100.00;101806.06;5050807;28;20086;-70
2023/01/06 10:06:36;;;;;;;5.68;1.40;;;;;;;8.00;100.00;101809.09;5049211;28;20030;-72
2023/01/06 10:09:21;;;;;;;12.93;1.83;;;;;;;8.06;100.00;101810.47;5050898;28;20017;-71
2023/01/06 10:11:46;;;;;;;6.10;1.38;;;;;;;8.19;100.00;101816.69;5050523;28;20063;-71
2023/01/06 10:14:37;;;;;;;9.95;1.55;;;;;;;8.26;100.00;101819.81;5050965;28;20306;-70
2023/01/06 10:17:24;;;;;;;9.98;1.77;;;;;;;8.38;100.00;101823.47;5048797;28;20025;-70
2023/01/06 10:20:41;;;;;;;9.80;1.35;;;;;;;8.49;100.00;101822.78;5050468;28;20084;-70
2023/01/06 10:23:34;;;;;;;8.93;1.35;;;;;;;8.69;100.00;101829.41;5005288;28;20033;-70
2023/01/06 10:26:12;;;;;;;8.73;1.35;;;;;;;8.82;100.00;101838.25;5050575;28;20120;-69
2023/01/06 10:28:46;;;;;;;11.02;1.63;;;;;;;8.81;100.00;101825.94;5050570;28;20021;-71
2023/01/06 10:31:18;;;;;;;7.97;1.38;;;;;;;8.91;100.00;101831.47;5049549;28;20090;-71
2023/01/06 10:33:54;;;;;;;12.43;1.90;;;;;;;8.91;100.00;101824.38;5050600;28;20044;-71
2023/01/06 10:36:29;;;;;;;7.75;1.55;;;;;;;8.95;100.00;101825.84;5050396;28;20051;-70
2023/01/06 10:38:55;;;;;;;8.23;1.63;;;;;;;8.95;100.00;101825.00;5050344;28;20025;-71
2023/01/06 10:41:38;;;;;;;9.18;1.58;;;;;;;8.95;100.00;101828.50;5049489;28;20446;-71
2023/01/06 10:44:04;;;;;;;5.75;1.42;;;;;;;8.92;100.00;101830.53;5049859;28;20071;-71
2023/01/06 10:46:34;;;;;;;8.38;1.63;;;;;;;8.91;100.00;101827.03;5050277;28;20028;-71
2023/01/06 10:49:07;;;;;;;3.92;1.42;;;;;;;8.98;100.00;101824.78;5050221;28;20033;-71
2023/01/06 10:51:38;;;;;;;7.25;1.50;;;;;;;9.06;100.00;101824.25;5050130;28;20425;-71
2023/01/06 10:54:10;;;;;;;11.38;1.75;;;;;;;9.22;100.00;101822.25;5050059;28;20024;-72
2023/01/06 10:56:38;;;;;;;5.70;1.52;;;;;;;9.32;100.00;101825.97;5049793;28;20083;-72
2023/01/06 10:59:09;;;;;;;8.48;1.45;;;;;;;9.55;100.00;101828.81;5050308;28;20045;-72
2023/01/06 11:01:45;;;;;;;8.88;1.58;;;;;;;9.73;100.00;101829.31;5049969;28;20029;-67
2023/01/06 11:04:12;;;;;;;6.43;1.45;;;;;;;9.86;100.00;101834.63;5049731;28;20433;-69
2023/01/06 11:06:41;;;;;;;6.93;1.33;;;;;;;10.12;100.00;101829.22;5050194;28;20073;-71
2023/01/06 11:09:40;;;;;;;8.35;1.48;;;;;;;10.41;100.00;101825.28;5049970;28;20445;-69
2023/01/06 11:12:12;;;;;;;19.23;1.70;;;;;;;10.48;100.00;101820.38;5046857;28;20041;-70
2023/01/06 11:14:38;;;;;;;6.20;1.33;;;;;;;10.50;100.00;101818.44;5049865;28;20033;-72
2023/01/06 11:17:11;;;;;;;6.13;1.40;;;;;;;10.47;100.00;101817.84;5049830;28;20036;-70
2023/01/06 11:19:57;;;;;;;5.68;1.30;;;;;;;10.36;100.00;101815.94;5049948;28;20162;-73
2023/01/06 11:22:40;;;;;;;7.00;1.42;;;;;;;10.15;100.00;101803.25;5049999;28;20126;-72
2023/01/06 11:25:31;;;;;;;8.75;1.83;;;;;;;10.02;100.00;101821.91;5051026;28;20033;-72
2023/01/06 11:28:18;;;;;;;10.75;1.52;;;;;;;10.01;100.00;101816.72;5050012;28;20126;-72
2023/01/06 11:30:53;;;;;;;9.48;1.70;;;;;;;10.05;100.00;101818.19;5049874;28;20100;-73
2023/01/06 11:33:22;;;;;;;8.77;2.08;;;;;;;10.15;100.00;101799.75;5049599;28;20086;-72
2023/01/06 11:35:49;;;;;;;10.80;1.90;;;;;;;10.33;100.00;101809.06;5049872;28;20476;-72
2023/01/06 11:38:17;;;;;;;8.48;1.48;;;;;;;10.48;100.00;101793.78;5049425;28;20048;-72